sensor_id;sensor_type;location;lat;lon;timestamp;P1;durP1;ratioP1;P2;durP2;ratioP2
65717;SDS011;52445;52.466;-1.016;2023-04-25T00:01:04;6.47;;;1.25;;
65717;SDS011;52445;52.466;-1.016;2023-04-25T00:03:32;9.40;;;1.30;;
65717;SDS011;52445;52.466;-1.016;2023-04-25T00:05:59;3.30;;;1.65;;
65717;SDS011;52445;52.466;-1.016;2023-04-25T00:08:29;3.53;;;0.85;;
65717;SDS011;52445;52.466;-1.016;2023-04-25T00:10:56;4.47;;;1.17;;
65717;SDS011;52445;52.466;-1.016;2023-04-25T00:13:24;5.30;;;1.48;;
65717;SDS011;52445;52.466;-1.016;2023-04-25T00:15:52;2.58;;;0.95;;
65717;SDS011;52445;52.466;-1.016;2023-04-25T00:18:19;2.50;;;0.68;;
65717;SDS011;52445;52.466;-1.016;2023-04-25T00:20:46;5.07;;;1.58;;
65717;SDS011;52445;52.466;-1.016;2023-04-25T00:23:13;1.60;;;0.68;;
65717;SDS011;52445;52.466;-1.016;2023-04-25T00:25:44;2.15;;;0.75;;
65717;SDS011;52445;52.466;-1.016;2023-04-25T00:28:11;6.53;;;1.02;;
65717;SDS011;52445;52.466;-1.016;2023-04-25T00:30:39;4.22;;;1.33;;
65717;SDS011;52445;52.466;-1.016;2023-04-25T00:33:06;9.73;;;1.92;;
65717;SDS011;52445;52.466;-1.016;2023-04-25T00:35:33;4.85;;;1.17;;
65717;SDS011;52445;52.466;-1.016;2023-04-25T00:38:01;8.70;;;1.38;;
65717;SDS011;52445;52.466;-1.016;2023-04-25T00:40:27;8.25;;;1.58;;
65717;SDS011;52445;52.466;-1.016;2023-04-25T00:42:54;3.83;;;1.42;;
65717;SDS011;52445;52.466;-1.016;2023-04-25T00:45:21;2.78;;;0.93;;
65717;SDS011;52445;52.466;-1.016;2023-04-25T00:47:47;14.18;;;1.42;;
65717;SDS011;52445;52.466;-1.016;2023-04-25T00:50:14;8.45;;;1.23;;
65717;SDS011;52445;52.466;-1.016;2023-04-25T00:52:41;7.35;;;1.10;;
65717;SDS011;52445;52.466;-1.016;2023-04-25T00:55:10;5.70;;;0.93;;
65717;SDS011;52445;52.466;-1.016;2023-04-25T00:57:38;3.58;;;1.30;;
65717;SDS011;52445;52.466;-1.016;2023-04-25T01:00:06;4.47;;;0.70;;
65717;SDS011;52445;52.466;-1.016;2023-04-25T01:02:33;6.90;;;2.17;;
65717;SDS011;52445;52.466;-1.016;2023-04-25T01:05:02;3.55;;;1.25;;
65717;SDS011;52445;52.466;-1.016;2023-04-25T01:07:29;4.43;;;0.80;;
65717;SDS011;52445;52.466;-1.016;2023-04-25T01:09:56;5.45;;;1.30;;
65717;SDS011;52445;52.466;-1.016;2023-04-25T01:12:23;2.05;;;1.40;;
65717;SDS011;52445;52.466;-1.016;2023-04-25T01:14:50;5.15;;;1.83;;
65717;SDS011;52445;52.466;-1.016;2023-04-25T01:17:17;9.68;;;1.95;;
65717;SDS011;52445;52.466;-1.016;2023-04-25T01:19:44;7.07;;;1.67;;
65717;SDS011;52445;52.466;-1.016;2023-04-25T01:22:12;3.17;;;1.60;;
65717;SDS011;52445;52.466;-1.016;2023-04-25T01:24:40;1.90;;;1.00;;
65717;SDS011;52445;52.466;-1.016;2023-04-25T01:27:07;8.18;;;1.27;;
65717;SDS011;52445;52.466;-1.016;2023-04-25T01:29:35;6.80;;;2.35;;
65717;SDS011;52445;52.466;-1.016;2023-04-25T01:32:03;6.15;;;1.40;;
65717;SDS011;52445;52.466;-1.016;2023-04-25T01:34:31;3.20;;;1.08;;
65717;SDS011;52445;52.466;-1.016;2023-04-25T01:36:59;3.60;;;1.10;;
65717;SDS011;52445;52.466;-1.016;2023-04-25T01:39:27;5.50;;;1.63;;
65717;SDS011;52445;52.466;-1.016;2023-04-25T01:41:54;6.75;;;2.33;;
65717;SDS011;52445;52.466;-1.016;2023-04-25T01:44:22;4.80;;;1.35;;
65717;SDS011;52445;52.466;-1.016;2023-04-25T01:46:49;5.47;;;1.25;;
65717;SDS011;52445;52.466;-1.016;2023-04-25T01:49:16;6.55;;;1.83;;
65717;SDS011;52445;52.466;-1.016;2023-04-25T01:51:43;4.75;;;1.75;;
65717;SDS011;52445;52.466;-1.016;2023-04-25T01:54:10;10.52;;;1.90;;
65717;SDS011;52445;52.466;-1.016;2023-04-25T01:56:37;4.30;;;1.45;;
65717;SDS011;52445;52.466;-1.016;2023-04-25T01:59:05;5.22;;;1.48;;
65717;SDS011;52445;52.466;-1.016;2023-04-25T02:01:32;6.05;;;1.38;;
65717;SDS011;52445;52.466;-1.016;2023-04-25T02:03:59;3.65;;;1.25;;
65717;SDS011;52445;52.466;-1.016;2023-04-25T02:06:26;4.05;;;1.90;;
65717;SDS011;52445;52.466;-1.016;2023-04-25T02:08:52;7.30;;;1.48;;
65717;SDS011;52445;52.466;-1.016;2023-04-25T02:11:19;3.45;;;1.92;;
65717;SDS011;52445;52.466;-1.016;2023-04-25T02:13:46;5.40;;;1.42;;
65717;SDS011;52445;52.466;-1.016;2023-04-25T02:16:12;3.40;;;1.50;;
65717;SDS011;52445;52.466;-1.016;2023-04-25T02:18:40;3.90;;;1.63;;
65717;SDS011;52445;52.466;-1.016;2023-04-25T02:21:06;3.92;;;1.08;;
65717;SDS011;52445;52.466;-1.016;2023-04-25T02:23:33;6.18;;;1.55;;
65717;SDS011;52445;52.466;-1.016;2023-04-25T02:25:59;1.90;;;1.35;;
65717;SDS011;52445;52.466;-1.016;2023-04-25T02:28:26;4.97;;;1.23;;
65717;SDS011;52445;52.466;-1.016;2023-04-25T02:30:53;4.72;;;1.20;;
65717;SDS011;52445;52.466;-1.016;2023-04-25T02:33:19;4.07;;;1.15;;
65717;SDS011;52445;52.466;-1.016;2023-04-25T02:35:47;7.93;;;1.40;;
65717;SDS011;52445;52.466;-1.016;2023-04-25T02:38:14;7.20;;;1.23;;
65717;SDS011;52445;52.466;-1.016;2023-04-25T02:40:40;5.50;;;1.38;;
65717;SDS011;52445;52.466;-1.016;2023-04-25T02:43:07;7.22;;;2.47;;
65717;SDS011;52445;52.466;-1.016;2023-04-25T02:45:34;7.82;;;1.70;;
65717;SDS011;52445;52.466;-1.016;2023-04-25T02:48:02;7.80;;;1.85;;
65717;SDS011;52445;52.466;-1.016;2023-04-25T02:50:29;6.82;;;2.00;;
65717;SDS011;52445;52.466;-1.016;2023-04-25T02:52:55;7.07;;;1.30;;
65717;SDS011;52445;52.466;-1.016;2023-04-25T02:55:22;2.75;;;1.08;;
65717;SDS011;52445;52.466;-1.016;2023-04-25T02:57:51;7.28;;;1.63;;
65717;SDS011;52445;52.466;-1.016;2023-04-25T03:00:18;4.38;;;1.33;;
65717;SDS011;52445;52.466;-1.016;2023-04-25T03:02:45;5.18;;;1.35;;
65717;SDS011;52445;52.466;-1.016;2023-04-25T03:05:11;2.85;;;0.93;;
65717;SDS011;52445;52.466;-1.016;2023-04-25T03:07:38;9.05;;;2.30;;
65717;SDS011;52445;52.466;-1.016;2023-04-25T03:10:06;4.18;;;1.98;;
65717;SDS011;52445;52.466;-1.016;2023-04-25T03:12:33;3.55;;;1.30;;
65717;SDS011;52445;52.466;-1.016;2023-04-25T03:15:00;8.43;;;1.42;;
65717;SDS011;52445;52.466;-1.016;2023-04-25T03:17:27;3.25;;;1.52;;
65717;SDS011;52445;52.466;-1.016;2023-04-25T03:19:53;4.88;;;1.10;;
65717;SDS011;52445;52.466;-1.016;2023-04-25T03:22:21;5.18;;;1.50;;
65717;SDS011;52445;52.466;-1.016;2023-04-25T03:24:48;3.47;;;1.27;;
65717;SDS011;52445;52.466;-1.016;2023-04-25T03:27:16;5.03;;;0.93;;
65717;SDS011;52445;52.466;-1.016;2023-04-25T03:29:43;2.92;;;0.77;;
65717;SDS011;52445;52.466;-1.016;2023-04-25T03:32:10;5.28;;;1.48;;
65717;SDS011;52445;52.466;-1.016;2023-04-25T03:34:37;6.30;;;1.73;;
65717;SDS011;52445;52.466;-1.016;2023-04-25T03:37:03;6.95;;;1.17;;
65717;SDS011;52445;52.466;-1.016;2023-04-25T03:39:30;5.80;;;1.77;;
65717;SDS011;52445;52.466;-1.016;2023-04-25T03:41:56;3.55;;;1.05;;
65717;SDS011;52445;52.466;-1.016;2023-04-25T03:44:23;11.27;;;1.70;;
65717;SDS011;52445;52.466;-1.016;2023-04-25T03:46:50;7.13;;;2.05;;
65717;SDS011;52445;52.466;-1.016;2023-04-25T03:49:17;6.82;;;1.90;;
65717;SDS011;52445;52.466;-1.016;2023-04-25T03:51:44;3.88;;;1.15;;
65717;SDS011;52445;52.466;-1.016;2023-04-25T03:54:11;4.53;;;1.30;;
65717;SDS011;52445;52.466;-1.016;2023-04-25T03:56:38;9.20;;;1.33;;
65717;SDS011;52445;52.466;-1.016;2023-04-25T03:59:04;4.13;;;1.15;;
65717;SDS011;52445;52.466;-1.016;2023-04-25T04:01:31;4.07;;;1.48;;
65717;SDS011;52445;52.466;-1.016;2023-04-25T04:03:58;3.25;;;1.20;;
65717;SDS011;52445;52.466;-1.016;2023-04-25T04:06:24;5.30;;;0.98;;
65717;SDS011;52445;52.466;-1.016;2023-04-25T04:08:51;5.35;;;1.83;;
65717;SDS011;52445;52.466;-1.016;2023-04-25T04:11:18;10.30;;;1.55;;
65717;SDS011;52445;52.466;-1.016;2023-04-25T04:13:44;3.08;;;1.42;;
65717;SDS011;52445;52.466;-1.016;2023-04-25T04:16:11;4.28;;;1.48;;
65717;SDS011;52445;52.466;-1.016;2023-04-25T04:18:37;6.78;;;0.90;;
65717;SDS011;52445;52.466;-1.016;2023-04-25T04:21:04;5.72;;;1.75;;
65717;SDS011;52445;52.466;-1.016;2023-04-25T04:23:31;6.55;;;1.77;;
65717;SDS011;52445;52.466;-1.016;2023-04-25T04:25:57;6.03;;;1.70;;
65717;SDS011;52445;52.466;-1.016;2023-04-25T04:28:24;5.38;;;1.38;;
65717;SDS011;52445;52.466;-1.016;2023-04-25T04:30:52;5.97;;;1.63;;
65717;SDS011;52445;52.466;-1.016;2023-04-25T04:33:19;6.55;;;1.33;;
65717;SDS011;52445;52.466;-1.016;2023-04-25T04:35:46;4.28;;;1.92;;
65717;SDS011;52445;52.466;-1.016;2023-04-25T04:38:13;5.05;;;1.45;;
65717;SDS011;52445;52.466;-1.016;2023-04-25T04:40:41;4.40;;;1.33;;
65717;SDS011;52445;52.466;-1.016;2023-04-25T04:43:09;5.05;;;1.13;;
65717;SDS011;52445;52.466;-1.016;2023-04-25T04:45:36;8.57;;;2.17;;
65717;SDS011;52445;52.466;-1.016;2023-04-25T04:48:05;7.00;;;1.60;;
65717;SDS011;52445;52.466;-1.016;2023-04-25T04:50:32;5.13;;;1.45;;
65717;SDS011;52445;52.466;-1.016;2023-04-25T04:52:59;2.88;;;1.23;;
65717;SDS011;52445;52.466;-1.016;2023-04-25T04:55:26;6.05;;;1.30;;
65717;SDS011;52445;52.466;-1.016;2023-04-25T04:57:52;7.20;;;1.60;;
65717;SDS011;52445;52.466;-1.016;2023-04-25T05:00:19;2.58;;;1.17;;
65717;SDS011;52445;52.466;-1.016;2023-04-25T05:02:47;3.00;;;1.58;;
65717;SDS011;52445;52.466;-1.016;2023-04-25T05:05:14;5.22;;;1.48;;
65717;SDS011;52445;52.466;-1.016;2023-04-25T05:07:40;2.20;;;1.17;;
65717;SDS011;52445;52.466;-1.016;2023-04-25T05:10:07;3.00;;;0.95;;
65717;SDS011;52445;52.466;-1.016;2023-04-25T05:12:34;4.15;;;0.68;;
65717;SDS011;52445;52.466;-1.016;2023-04-25T05:15:02;4.30;;;1.27;;
65717;SDS011;52445;52.466;-1.016;2023-04-25T05:17:29;4.05;;;0.90;;
65717;SDS011;52445;52.466;-1.016;2023-04-25T05:19:56;7.47;;;1.58;;
65717;SDS011;52445;52.466;-1.016;2023-04-25T05:22:23;7.47;;;0.75;;
65717;SDS011;52445;52.466;-1.016;2023-04-25T05:24:49;3.95;;;0.80;;
65717;SDS011;52445;52.466;-1.016;2023-04-25T05:27:20;5.57;;;1.23;;
65717;SDS011;52445;52.466;-1.016;2023-04-25T05:29:47;4.68;;;1.10;;
65717;SDS011;52445;52.466;-1.016;2023-04-25T05:32:14;3.33;;;1.00;;
65717;SDS011;52445;52.466;-1.016;2023-04-25T05:34:41;2.58;;;1.17;;
65717;SDS011;52445;52.466;-1.016;2023-04-25T05:37:08;7.05;;;1.75;;
65717;SDS011;52445;52.466;-1.016;2023-04-25T05:39:34;1.75;;;0.50;;
65717;SDS011;52445;52.466;-1.016;2023-04-25T05:42:01;5.07;;;1.42;;
65717;SDS011;52445;52.466;-1.016;2023-04-25T05:44:28;7.95;;;1.17;;
65717;SDS011;52445;52.466;-1.016;2023-04-25T05:46:54;8.60;;;1.67;;
65717;SDS011;52445;52.466;-1.016;2023-04-25T05:49:21;1.48;;;1.38;;
65717;SDS011;52445;52.466;-1.016;2023-04-25T05:51:48;5.10;;;1.48;;
65717;SDS011;52445;52.466;-1.016;2023-04-25T05:54:15;1.15;;;0.70;;
65717;SDS011;52445;52.466;-1.016;2023-04-25T05:56:41;1.75;;;0.68;;
65717;SDS011;52445;52.466;-1.016;2023-04-25T05:59:08;1.55;;;0.70;;
65717;SDS011;52445;52.466;-1.016;2023-04-25T06:01:34;3.83;;;0.70;;
65717;SDS011;52445;52.466;-1.016;2023-04-25T06:04:01;1.33;;;0.60;;
65717;SDS011;52445;52.466;-1.016;2023-04-25T06:06:28;6.53;;;1.08;;
65717;SDS011;52445;52.466;-1.016;2023-04-25T06:08:55;2.45;;;0.93;;
65717;SDS011;52445;52.466;-1.016;2023-04-25T06:11:22;2.40;;;0.60;;
65717;SDS011;52445;52.466;-1.016;2023-04-25T06:13:48;2.25;;;0.95;;
65717;SDS011;52445;52.466;-1.016;2023-04-25T06:16:15;5.57;;;0.77;;
65717;SDS011;52445;52.466;-1.016;2023-04-25T06:18:42;5.20;;;1.38;;
65717;SDS011;52445;52.466;-1.016;2023-04-25T06:21:08;4.47;;;2.13;;
65717;SDS011;52445;52.466;-1.016;2023-04-25T06:23:35;3.28;;;0.82;;
65717;SDS011;52445;52.466;-1.016;2023-04-25T06:26:02;1.05;;;0.70;;
65717;SDS011;52445;52.466;-1.016;2023-04-25T06:28:28;1.20;;;0.77;;
65717;SDS011;52445;52.466;-1.016;2023-04-25T06:30:55;7.93;;;1.30;;
65717;SDS011;52445;52.466;-1.016;2023-04-25T06:33:22;4.20;;;1.15;;
65717;SDS011;52445;52.466;-1.016;2023-04-25T06:35:50;2.42;;;1.33;;
65717;SDS011;52445;52.466;-1.016;2023-04-25T06:38:17;7.38;;;0.88;;
65717;SDS011;52445;52.466;-1.016;2023-04-25T06:40:43;3.05;;;0.75;;
65717;SDS011;52445;52.466;-1.016;2023-04-25T06:43:10;5.88;;;1.17;;
65717;SDS011;52445;52.466;-1.016;2023-04-25T06:45:36;3.03;;;0.50;;
65717;SDS011;52445;52.466;-1.016;2023-04-25T06:48:03;3.40;;;0.93;;
65717;SDS011;52445;52.466;-1.016;2023-04-25T06:50:30;6.65;;;1.65;;
65717;SDS011;52445;52.466;-1.016;2023-04-25T06:52:56;5.97;;;1.27;;
65717;SDS011;52445;52.466;-1.016;2023-04-25T06:55:23;2.58;;;0.50;;
65717;SDS011;52445;52.466;-1.016;2023-04-25T06:57:50;2.58;;;0.73;;
65717;SDS011;52445;52.466;-1.016;2023-04-25T07:00:16;2.97;;;0.95;;
65717;SDS011;52445;52.466;-1.016;2023-04-25T07:02:43;7.25;;;1.35;;
65717;SDS011;52445;52.466;-1.016;2023-04-25T07:05:10;6.07;;;1.58;;
65717;SDS011;52445;52.466;-1.016;2023-04-25T07:07:37;3.90;;;0.80;;
65717;SDS011;52445;52.466;-1.016;2023-04-25T07:10:03;3.33;;;0.82;;
65717;SDS011;52445;52.466;-1.016;2023-04-25T07:12:31;3.90;;;0.80;;
65717;SDS011;52445;52.466;-1.016;2023-04-25T07:14:58;2.28;;;0.93;;
65717;SDS011;52445;52.466;-1.016;2023-04-25T07:17:24;11.48;;;1.67;;
65717;SDS011;52445;52.466;-1.016;2023-04-25T07:19:51;5.13;;;1.63;;
65717;SDS011;52445;52.466;-1.016;2023-04-25T07:22:18;6.20;;;0.73;;
65717;SDS011;52445;52.466;-1.016;2023-04-25T07:24:44;1.92;;;0.63;;
65717;SDS011;52445;52.466;-1.016;2023-04-25T07:29:41;4.40;;;0.63;;
65717;SDS011;52445;52.466;-1.016;2023-04-25T07:32:08;3.17;;;1.08;;
65717;SDS011;52445;52.466;-1.016;2023-04-25T07:34:36;4.18;;;1.10;;
65717;SDS011;52445;52.466;-1.016;2023-04-25T07:37:04;8.23;;;3.30;;
65717;SDS011;52445;52.466;-1.016;2023-04-25T07:39:31;2.33;;;0.82;;
65717;SDS011;52445;52.466;-1.016;2023-04-25T07:41:58;4.50;;;1.17;;
65717;SDS011;52445;52.466;-1.016;2023-04-25T07:44:24;2.75;;;1.45;;
65717;SDS011;52445;52.466;-1.016;2023-04-25T07:46:52;4.90;;;1.65;;
65717;SDS011;52445;52.466;-1.016;2023-04-25T07:49:18;4.07;;;1.08;;
65717;SDS011;52445;52.466;-1.016;2023-04-25T07:51:45;2.00;;;0.88;;
65717;SDS011;52445;52.466;-1.016;2023-04-25T07:54:13;2.63;;;1.27;;
65717;SDS011;52445;52.466;-1.016;2023-04-25T07:56:41;2.80;;;0.90;;
65717;SDS011;52445;52.466;-1.016;2023-04-25T07:59:18;2.35;;;0.82;;
65717;SDS011;52445;52.466;-1.016;2023-04-25T08:01:44;3.10;;;0.90;;
65717;SDS011;52445;52.466;-1.016;2023-04-25T08:04:11;2.50;;;1.08;;
65717;SDS011;52445;52.466;-1.016;2023-04-25T08:06:38;2.38;;;1.35;;
65717;SDS011;52445;52.466;-1.016;2023-04-25T08:09:05;4.85;;;1.08;;
65717;SDS011;52445;52.466;-1.016;2023-04-25T08:11:32;1.98;;;1.00;;
65717;SDS011;52445;52.466;-1.016;2023-04-25T08:13:59;5.35;;;1.85;;
65717;SDS011;52445;52.466;-1.016;2023-04-25T08:16:25;6.55;;;1.67;;
65717;SDS011;52445;52.466;-1.016;2023-04-25T08:18:52;3.55;;;1.50;;
65717;SDS011;52445;52.466;-1.016;2023-04-25T08:21:19;3.60;;;1.75;;
65717;SDS011;52445;52.466;-1.016;2023-04-25T08:23:46;2.10;;;0.93;;
65717;SDS011;52445;52.466;-1.016;2023-04-25T08:26:12;2.75;;;0.68;;
65717;SDS011;52445;52.466;-1.016;2023-04-25T08:28:39;4.80;;;1.70;;
65717;SDS011;52445;52.466;-1.016;2023-04-25T08:31:06;2.55;;;1.67;;
65717;SDS011;52445;52.466;-1.016;2023-04-25T08:33:33;5.47;;;1.30;;
65717;SDS011;52445;52.466;-1.016;2023-04-25T08:35:59;3.80;;;1.13;;
65717;SDS011;52445;52.466;-1.016;2023-04-25T08:38:26;3.40;;;0.60;;
65717;SDS011;52445;52.466;-1.016;2023-04-25T08:40:52;1.60;;;0.60;;
65717;SDS011;52445;52.466;-1.016;2023-04-25T08:43:21;3.30;;;0.95;;
65717;SDS011;52445;52.466;-1.016;2023-04-25T08:45:49;4.07;;;1.10;;
65717;SDS011;52445;52.466;-1.016;2023-04-25T08:48:19;2.20;;;0.75;;
65717;SDS011;52445;52.466;-1.016;2023-04-25T08:50:49;3.15;;;1.65;;
65717;SDS011;52445;52.466;-1.016;2023-04-25T08:55:47;1.65;;;0.85;;
65717;SDS011;52445;52.466;-1.016;2023-04-25T08:58:16;7.40;;;1.55;;
65717;SDS011;52445;52.466;-1.016;2023-04-25T09:00:45;2.75;;;1.27;;
65717;SDS011;52445;52.466;-1.016;2023-04-25T09:03:13;6.18;;;1.73;;
65717;SDS011;52445;52.466;-1.016;2023-04-25T09:05:41;5.13;;;0.95;;
65717;SDS011;52445;52.466;-1.016;2023-04-25T09:08:10;3.33;;;1.25;;
65717;SDS011;52445;52.466;-1.016;2023-04-25T09:10:37;3.50;;;1.05;;
65717;SDS011;52445;52.466;-1.016;2023-04-25T09:15:56;4.35;;;1.50;;
65717;SDS011;52445;52.466;-1.016;2023-04-25T09:21:08;2.75;;;1.60;;
65717;SDS011;52445;52.466;-1.016;2023-04-25T09:23:40;3.33;;;0.90;;
65717;SDS011;52445;52.466;-1.016;2023-04-25T09:26:13;3.38;;;1.25;;
65717;SDS011;52445;52.466;-1.016;2023-04-25T09:28:41;5.90;;;1.10;;
65717;SDS011;52445;52.466;-1.016;2023-04-25T09:31:09;3.00;;;0.80;;
65717;SDS011;52445;52.466;-1.016;2023-04-25T09:33:37;2.88;;;1.08;;
65717;SDS011;52445;52.466;-1.016;2023-04-25T09:36:05;2.63;;;1.20;;
65717;SDS011;52445;52.466;-1.016;2023-04-25T09:38:42;2.20;;;0.70;;
65717;SDS011;52445;52.466;-1.016;2023-04-25T09:41:10;2.47;;;0.98;;
65717;SDS011;52445;52.466;-1.016;2023-04-25T09:43:38;3.08;;;1.15;;
65717;SDS011;52445;52.466;-1.016;2023-04-25T09:46:09;2.80;;;1.20;;
65717;SDS011;52445;52.466;-1.016;2023-04-25T09:48:37;2.45;;;0.98;;
65717;SDS011;52445;52.466;-1.016;2023-04-25T09:51:08;2.97;;;1.15;;
65717;SDS011;52445;52.466;-1.016;2023-04-25T09:53:45;6.50;;;1.92;;
65717;SDS011;52445;52.466;-1.016;2023-04-25T09:56:17;3.95;;;2.35;;
65717;SDS011;52445;52.466;-1.016;2023-04-25T09:58:46;3.00;;;1.88;;
65717;SDS011;52445;52.466;-1.016;2023-04-25T10:01:13;6.43;;;2.38;;
65717;SDS011;52445;52.466;-1.016;2023-04-25T10:03:42;2.75;;;1.85;;
65717;SDS011;52445;52.466;-1.016;2023-04-25T10:06:12;3.17;;;1.02;;
65717;SDS011;52445;52.466;-1.016;2023-04-25T10:08:40;6.00;;;2.95;;
65717;SDS011;52445;52.466;-1.016;2023-04-25T10:11:08;5.80;;;2.45;;
65717;SDS011;52445;52.466;-1.016;2023-04-25T10:13:35;4.07;;;2.35;;
65717;SDS011;52445;52.466;-1.016;2023-04-25T10:16:03;2.97;;;2.05;;
65717;SDS011;52445;52.466;-1.016;2023-04-25T10:18:31;4.70;;;2.25;;
65717;SDS011;52445;52.466;-1.016;2023-04-25T10:21:00;4.40;;;2.40;;
65717;SDS011;52445;52.466;-1.016;2023-04-25T10:23:29;4.32;;;2.83;;
65717;SDS011;52445;52.466;-1.016;2023-04-25T10:25:58;4.20;;;2.13;;
65717;SDS011;52445;52.466;-1.016;2023-04-25T10:28:26;7.18;;;2.42;;
65717;SDS011;52445;52.466;-1.016;2023-04-25T10:31:01;3.28;;;2.22;;
65717;SDS011;52445;52.466;-1.016;2023-04-25T10:33:36;5.18;;;2.08;;
65717;SDS011;52445;52.466;-1.016;2023-04-25T10:38:52;4.57;;;1.17;;
65717;SDS011;52445;52.466;-1.016;2023-04-25T10:41:20;4.30;;;1.20;;
65717;SDS011;52445;52.466;-1.016;2023-04-25T10:43:49;4.45;;;1.25;;
65717;SDS011;52445;52.466;-1.016;2023-04-25T10:46:27;7.38;;;1.63;;
65717;SDS011;52445;52.466;-1.016;2023-04-25T10:48:59;6.40;;;1.13;;
65717;SDS011;52445;52.466;-1.016;2023-04-25T10:54:20;2.58;;;1.02;;
65717;SDS011;52445;52.466;-1.016;2023-04-25T10:56:49;3.88;;;0.95;;
65717;SDS011;52445;52.466;-1.016;2023-04-25T10:59:17;2.35;;;1.17;;
65717;SDS011;52445;52.466;-1.016;2023-04-25T11:01:46;4.13;;;1.05;;
65717;SDS011;52445;52.466;-1.016;2023-04-25T11:04:25;4.13;;;0.95;;
65717;SDS011;52445;52.466;-1.016;2023-04-25T11:09:33;3.60;;;1.42;;
65717;SDS011;52445;52.466;-1.016;2023-04-25T11:12:01;4.53;;;1.13;;
65717;SDS011;52445;52.466;-1.016;2023-04-25T11:14:29;1.83;;;1.27;;
65717;SDS011;52445;52.466;-1.016;2023-04-25T11:16:58;4.32;;;1.35;;
65717;SDS011;52445;52.466;-1.016;2023-04-25T11:21:56;2.35;;;1.02;;
65717;SDS011;52445;52.466;-1.016;2023-04-25T11:24:27;3.58;;;1.20;;
65717;SDS011;52445;52.466;-1.016;2023-04-25T11:27:03;8.68;;;3.08;;
65717;SDS011;52445;52.466;-1.016;2023-04-25T11:29:32;6.00;;;2.67;;
65717;SDS011;52445;52.466;-1.016;2023-04-25T11:32:00;4.50;;;2.55;;
65717;SDS011;52445;52.466;-1.016;2023-04-25T11:34:28;7.13;;;2.72;;
65717;SDS011;52445;52.466;-1.016;2023-04-25T11:36:57;6.90;;;2.47;;
65717;SDS011;52445;52.466;-1.016;2023-04-25T11:39:24;3.63;;;2.95;;
65717;SDS011;52445;52.466;-1.016;2023-04-25T11:41:51;5.85;;;2.78;;
65717;SDS011;52445;52.466;-1.016;2023-04-25T11:44:18;2.70;;;2.38;;
65717;SDS011;52445;52.466;-1.016;2023-04-25T11:46:45;6.70;;;3.05;;
65717;SDS011;52445;52.466;-1.016;2023-04-25T11:49:14;4.97;;;3.95;;
65717;SDS011;52445;52.466;-1.016;2023-04-25T11:51:41;5.63;;;2.83;;
65717;SDS011;52445;52.466;-1.016;2023-04-25T11:54:09;4.72;;;2.58;;
65717;SDS011;52445;52.466;-1.016;2023-04-25T11:56:41;6.80;;;3.03;;
65717;SDS011;52445;52.466;-1.016;2023-04-25T11:59:08;3.00;;;2.50;;
65717;SDS011;52445;52.466;-1.016;2023-04-25T12:01:37;3.10;;;2.70;;
65717;SDS011;52445;52.466;-1.016;2023-04-25T12:04:13;4.68;;;2.85;;
65717;SDS011;52445;52.466;-1.016;2023-04-25T12:06:42;5.93;;;2.92;;
65717;SDS011;52445;52.466;-1.016;2023-04-25T12:09:11;4.25;;;1.95;;
65717;SDS011;52445;52.466;-1.016;2023-04-25T12:11:55;5.68;;;3.13;;
65717;SDS011;52445;52.466;-1.016;2023-04-25T12:14:25;3.20;;;2.35;;
65717;SDS011;52445;52.466;-1.016;2023-04-25T12:16:55;4.90;;;3.28;;
65717;SDS011;52445;52.466;-1.016;2023-04-25T12:19:24;4.80;;;2.92;;
65717;SDS011;52445;52.466;-1.016;2023-04-25T12:21:50;3.30;;;2.47;;
65717;SDS011;52445;52.466;-1.016;2023-04-25T12:24:22;4.93;;;2.90;;
65717;SDS011;52445;52.466;-1.016;2023-04-25T12:26:52;4.28;;;2.85;;
65717;SDS011;52445;52.466;-1.016;2023-04-25T12:29:25;4.00;;;3.03;;
65717;SDS011;52445;52.466;-1.016;2023-04-25T12:32:00;4.78;;;1.25;;
65717;SDS011;52445;52.466;-1.016;2023-04-25T12:34:28;3.85;;;2.38;;
65717;SDS011;52445;52.466;-1.016;2023-04-25T12:36:54;4.13;;;2.75;;
65717;SDS011;52445;52.466;-1.016;2023-04-25T12:39:22;4.47;;;2.90;;
65717;SDS011;52445;52.466;-1.016;2023-04-25T12:41:50;4.25;;;2.70;;
65717;SDS011;52445;52.466;-1.016;2023-04-25T12:44:20;5.82;;;2.75;;
65717;SDS011;52445;52.466;-1.016;2023-04-25T12:46:47;6.97;;;2.72;;
65717;SDS011;52445;52.466;-1.016;2023-04-25T12:49:14;2.42;;;1.20;;
65717;SDS011;52445;52.466;-1.016;2023-04-25T12:51:44;5.03;;;3.10;;
65717;SDS011;52445;52.466;-1.016;2023-04-25T12:54:11;5.45;;;3.00;;
65717;SDS011;52445;52.466;-1.016;2023-04-25T12:56:37;2.67;;;2.47;;
65717;SDS011;52445;52.466;-1.016;2023-04-25T12:59:04;5.25;;;3.20;;
65717;SDS011;52445;52.466;-1.016;2023-04-25T13:01:31;3.70;;;2.88;;
65717;SDS011;52445;52.466;-1.016;2023-04-25T13:04:01;4.78;;;2.85;;
65717;SDS011;52445;52.466;-1.016;2023-04-25T13:06:28;2.88;;;1.40;;
65717;SDS011;52445;52.466;-1.016;2023-04-25T13:08:56;3.45;;;2.38;;
65717;SDS011;52445;52.466;-1.016;2023-04-25T13:11:23;4.63;;;2.88;;
65717;SDS011;52445;52.466;-1.016;2023-04-25T13:13:49;4.70;;;1.27;;
65717;SDS011;52445;52.466;-1.016;2023-04-25T13:16:16;4.63;;;3.42;;
65717;SDS011;52445;52.466;-1.016;2023-04-25T13:18:43;4.78;;;3.63;;
65717;SDS011;52445;52.466;-1.016;2023-04-25T13:21:10;3.15;;;2.85;;
65717;SDS011;52445;52.466;-1.016;2023-04-25T13:23:37;2.17;;;1.60;;
65717;SDS011;52445;52.466;-1.016;2023-04-25T13:26:04;4.70;;;3.05;;
65717;SDS011;52445;52.466;-1.016;2023-04-25T13:28:31;4.60;;;3.00;;
65717;SDS011;52445;52.466;-1.016;2023-04-25T13:30:58;4.00;;;2.85;;
65717;SDS011;52445;52.466;-1.016;2023-04-25T13:33:25;4.18;;;3.15;;
65717;SDS011;52445;52.466;-1.016;2023-04-25T13:35:52;4.63;;;2.50;;
65717;SDS011;52445;52.466;-1.016;2023-04-25T13:38:21;4.15;;;2.78;;
65717;SDS011;52445;52.466;-1.016;2023-04-25T13:40:49;5.43;;;3.20;;
65717;SDS011;52445;52.466;-1.016;2023-04-25T13:43:18;3.15;;;2.60;;
65717;SDS011;52445;52.466;-1.016;2023-04-25T13:45:47;3.65;;;2.75;;
65717;SDS011;52445;52.466;-1.016;2023-04-25T13:48:14;5.43;;;3.47;;
65717;SDS011;52445;52.466;-1.016;2023-04-25T13:50:41;5.25;;;2.55;;
65717;SDS011;52445;52.466;-1.016;2023-04-25T13:53:08;4.68;;;2.63;;
65717;SDS011;52445;52.466;-1.016;2023-04-25T13:55:34;3.08;;;2.33;;
65717;SDS011;52445;52.466;-1.016;2023-04-25T13:58:03;4.35;;;2.97;;
65717;SDS011;52445;52.466;-1.016;2023-04-25T14:00:37;5.43;;;2.92;;
65717;SDS011;52445;52.466;-1.016;2023-04-25T14:03:05;5.93;;;3.30;;
65717;SDS011;52445;52.466;-1.016;2023-04-25T14:05:35;4.95;;;3.10;;
65717;SDS011;52445;52.466;-1.016;2023-04-25T14:08:05;6.07;;;3.28;;
65717;SDS011;52445;52.466;-1.016;2023-04-25T14:10:33;4.68;;;2.67;;
65717;SDS011;52445;52.466;-1.016;2023-04-25T14:13:01;3.53;;;2.90;;
65717;SDS011;52445;52.466;-1.016;2023-04-25T14:15:30;4.93;;;3.45;;
65717;SDS011;52445;52.466;-1.016;2023-04-25T14:17:58;6.47;;;3.33;;
65717;SDS011;52445;52.466;-1.016;2023-04-25T14:20:25;7.05;;;3.80;;
65717;SDS011;52445;52.466;-1.016;2023-04-25T14:22:52;3.45;;;3.00;;
65717;SDS011;52445;52.466;-1.016;2023-04-25T14:25:21;7.82;;;3.13;;
65717;SDS011;52445;52.466;-1.016;2023-04-25T14:27:48;4.38;;;1.75;;
65717;SDS011;52445;52.466;-1.016;2023-04-25T14:30:17;5.22;;;3.25;;
65717;SDS011;52445;52.466;-1.016;2023-04-25T14:32:45;7.55;;;4.70;;
65717;SDS011;52445;52.466;-1.016;2023-04-25T14:35:12;4.15;;;3.45;;
65717;SDS011;52445;52.466;-1.016;2023-04-25T14:37:39;3.47;;;2.53;;
65717;SDS011;52445;52.466;-1.016;2023-04-25T14:40:06;5.57;;;3.15;;
65717;SDS011;52445;52.466;-1.016;2023-04-25T14:42:37;5.18;;;3.80;;
65717;SDS011;52445;52.466;-1.016;2023-04-25T14:45:04;7.97;;;3.35;;
65717;SDS011;52445;52.466;-1.016;2023-04-25T14:47:32;7.15;;;4.03;;
65717;SDS011;52445;52.466;-1.016;2023-04-25T14:49:59;5.97;;;1.90;;
65717;SDS011;52445;52.466;-1.016;2023-04-25T14:52:27;5.90;;;4.32;;
65717;SDS011;52445;52.466;-1.016;2023-04-25T14:54:54;5.97;;;3.38;;
65717;SDS011;52445;52.466;-1.016;2023-04-25T14:57:21;5.47;;;3.58;;